Time;durP1;ratioP1;P1;durP2;ratioP2;P2;SDS_P1;SDS_P2;PMS_P1;PMS_P2;Temp;Humidity;BMP_temperature;BMP_pressure;BME280_temperature;BME280_humidity;BME280_pressure;Samples;Min_cycle;Max_cycle;Signal;HPM_P1;HPM_P2
2023/07/17 00:00:40;;;;;;;877.35;591.38;;;;;;;;;;5030074;28;20438;-63
2023/07/17 00:03:12;;;;;;;888.58;588.40;;;;;;;;;;5028863;28;20435;-63
2023/07/17 00:05:40;;;;;;;901.35;601.20;;;;;;;;;;5024418;28;20457;-64
2023/07/17 00:08:07;;;;;;;928.65;634.75;;;;;;;;;;5020995;28;20435;-63
2023/07/17 00:10:38;;;;;;;896.63;606.30;;;;;;;;;;5020602;28;20532;-63
2023/07/17 00:13:05;;;;;;;866.08;548.58;;;;;;;;;;5020701;28;20439;-63
2023/07/17 00:15:33;;;;;;;886.25;590.20;;;;;;;;;;5018598;28;20437;-63
2023/07/17 00:18:03;;;;;;;871.50;574.85;;;;;;;;;;5006315;28;20445;-62
2023/07/17 00:20:37;;;;;;;870.85;584.67;;;;;;;;;;5025025;28;20428;-62
2023/07/17 00:23:05;;;;;;;896.78;598.85;;;;;;;;;;5023165;28;20505;-63
2023/07/17 00:25:35;;;;;;;878.95;587.75;;;;;;;;;;5028776;28;20432;-63
2023/07/17 00:28:02;;;;;;;871.22;578.13;;;;;;;;;;5019733;28;20467;-62
2023/07/17 00:30:29;;;;;;;855.33;561.90;;;;;;;;;;5025393;28;20434;-62
2023/07/17 00:32:56;;;;;;;832.63;546.60;;;;;;;;;;5022389;28;20841;-63
2023/07/17 00:35:26;;;;;;;832.10;547.38;;;;;;;;;;5025179;28;21486;-62
2023/07/17 00:37:54;;;;;;;853.97;569.20;;;;;;;;;;5019474;28;21129;-62
2023/07/17 00:40:21;;;;;;;846.85;569.45;;;;;;;;;;5026289;28;20473;-63
2023/07/17 00:42:50;;;;;;;823.60;507.77;;;;;;;;;;4998908;28;20450;-63
2023/07/17 00:45:17;;;;;;;830.10;526.77;;;;;;;;;;5022635;28;20434;-63
2023/07/17 00:47:45;;;;;;;842.88;523.58;;;;;;;;;;5014835;28;20437;-64
2023/07/17 00:50:12;;;;;;;825.20;517.70;;;;;;;;;;5026556;28;20474;-63
2023/07/17 00:52:40;;;;;;;852.92;570.28;;;;;;;;;;5023121;28;20817;-64
2023/07/17 00:55:08;;;;;;;859.05;579.42;;;;;;;;;;5019686;28;20971;-64
2023/07/17 00:57:36;;;;;;;865.63;565.20;;;;;;;;;;5025518;28;21016;-63
2023/07/17 01:00:05;;;;;;;821.38;532.05;;;;;;;;;;5027813;28;20522;-63
2023/07/17 01:02:40;;;;;;;833.65;534.97;;;;;;;;;;5011070;28;20484;-63
2023/07/17 01:05:08;;;;;;;879.25;571.17;;;;;;;;;;5029179;28;20431;-63
2023/07/17 01:07:39;;;;;;;860.95;559.28;;;;;;;;;;5017825;28;20931;-62
2023/07/17 01:10:08;;;;;;;875.97;589.10;;;;;;;;;;5018722;28;20530;-62
2023/07/17 01:12:38;;;;;;;868.10;583.08;;;;;;;;;;5022009;28;20457;-63
2023/07/17 01:15:09;;;;;;;879.25;585.85;;;;;;;;;;5021931;28;20545;-63
2023/07/17 01:17:38;;;;;;;836.17;525.75;;;;;;;;;;5024896;28;20442;-63
2023/07/17 01:20:10;;;;;;;884.15;585.20;;;;;;;;;;5020911;28;20432;-63
2023/07/17 01:22:54;;;;;;;855.23;539.43;;;;;;;;;;5019217;28;20812;-63
2023/07/17 01:25:21;;;;;;;875.75;594.10;;;;;;;;;;5023492;28;20433;-63
2023/07/17 01:27:48;;;;;;;895.25;592.17;;;;;;;;;;5021709;28;20481;-63
2023/07/17 01:30:21;;;;;;;839.53;534.57;;;;;;;;;;5025323;28;20436;-63
2023/07/17 01:32:49;;;;;;;851.97;571.80;;;;;;;;;;5018067;28;20425;-63
2023/07/17 01:35:16;;;;;;;839.22;550.15;;;;;;;;;;5021083;28;20423;-64
2023/07/17 01:37:43;;;;;;;856.85;589.05;;;;;;;;;;5021434;28;20438;-64
2023/07/17 01:40:16;;;;;;;894.13;602.03;;;;;;;;;;5034082;28;20623;-63
2023/07/17 01:42:43;;;;;;;902.70;606.97;;;;;;;;;;5023550;28;20442;-63
2023/07/17 01:45:10;;;;;;;874.58;584.00;;;;;;;;;;5031710;28;20461;-64
2023/07/17 01:47:37;;;;;;;879.75;589.47;;;;;;;;;;5023809;28;20438;-63
2023/07/17 01:50:11;;;;;;;868.90;563.90;;;;;;;;;;5026270;28;20944;-64
2023/07/17 01:52:38;;;;;;;874.38;570.47;;;;;;;;;;5028628;28;20452;-63
2023/07/17 01:55:05;;;;;;;868.53;564.35;;;;;;;;;;5026252;28;20448;-63
2023/07/17 01:57:33;;;;;;;851.22;549.60;;;;;;;;;;5022314;28;20442;-64
2023/07/17 02:00:00;;;;;;;849.72;544.35;;;;;;;;;;5026405;28;20496;-64
2023/07/17 02:02:27;;;;;;;864.38;561.20;;;;;;;;;;5023233;28;20509;-64
2023/07/17 02:04:54;;;;;;;873.53;576.15;;;;;;;;;;5026774;28;20504;-64
2023/07/17 02:07:21;;;;;;;861.63;571.47;;;;;;;;;;5032623;28;20508;-61
2023/07/17 02:09:49;;;;;;;875.83;581.07;;;;;;;;;;5023823;28;20434;-62
2023/07/17 02:12:22;;;;;;;846.40;547.00;;;;;;;;;;5029762;28;20529;-62
2023/07/17 02:14:52;;;;;;;869.40;564.67;;;;;;;;;;5028207;28;20504;-62
2023/07/17 02:17:19;;;;;;;862.80;565.05;;;;;;;;;;5026993;28;20438;-62
2023/07/17 02:19:46;;;;;;;850.00;570.47;;;;;;;;;;5025113;28;21104;-63
2023/07/17 02:22:14;;;;;;;830.95;530.92;;;;;;;;;;5015582;28;20458;-63
2023/07/17 02:24:41;;;;;;;857.13;556.50;;;;;;;;;;5026352;28;20460;-63
2023/07/17 02:27:08;;;;;;;789.60;477.30;;;;;;;;;;5023895;28;20917;-64
2023/07/17 02:29:36;;;;;;;780.33;451.42;;;;;;;;;;5028161;28;20495;-64
2023/07/17 02:32:03;;;;;;;805.97;479.33;;;;;;;;;;5028297;28;20529;-64
2023/07/17 02:34:30;;;;;;;828.85;515.72;;;;;;;;;;5018906;28;20761;-63
2023/07/17 02:36:57;;;;;;;814.05;514.47;;;;;;;;;;5024630;28;20861;-63
2023/07/17 02:39:24;;;;;;;787.33;489.55;;;;;;;;;;5021911;28;20455;-63
2023/07/17 02:41:51;;;;;;;772.20;472.30;;;;;;;;;;5029264;28;20810;-63
2023/07/17 02:44:19;;;;;;;785.92;492.90;;;;;;;;;;5021207;28;20461;-63
2023/07/17 02:46:47;;;;;;;777.23;478.53;;;;;;;;;;5027518;28;20439;-63
2023/07/17 02:49:14;;;;;;;796.10;506.30;;;;;;;;;;5023498;28;20444;-63
2023/07/17 02:51:44;;;;;;;810.93;507.40;;;;;;;;;;5026439;28;20442;-64
2023/07/17 02:54:12;;;;;;;821.70;523.28;;;;;;;;;;5027815;28;20446;-63
2023/07/17 02:56:39;;;;;;;802.60;517.63;;;;;;;;;;5032439;28;20848;-64
2023/07/17 02:59:06;;;;;;;807.03;509.67;;;;;;;;;;5030758;28;20438;-63
2023/07/17 03:01:33;;;;;;;816.80;515.03;;;;;;;;;;5025735;28;20526;-63
2023/07/17 03:04:01;;;;;;;774.83;496.25;;;;;;;;;;5023959;28;20635;-63
2023/07/17 03:06:28;;;;;;;758.53;462.00;;;;;;;;;;5021339;28;21011;-63
2023/07/17 03:08:55;;;;;;;746.85;424.77;;;;;;;;;;5025030;28;20438;-63
2023/07/17 03:11:22;;;;;;;738.63;415.80;;;;;;;;;;5039567;28;20446;-63
2023/07/17 03:13:49;;;;;;;755.92;473.23;;;;;;;;;;5025958;28;20454;-63
2023/07/17 03:16:17;;;;;;;748.95;505.05;;;;;;;;;;5018591;28;20955;-63
2023/07/17 03:18:47;;;;;;;767.60;510.60;;;;;;;;;;5024486;28;20427;-63
2023/07/17 03:21:14;;;;;;;721.93;403.53;;;;;;;;;;5013308;28;20605;-63
2023/07/17 03:23:41;;;;;;;744.47;439.98;;;;;;;;;;5022234;28;20913;-64
2023/07/17 03:26:09;;;;;;;749.75;452.70;;;;;;;;;;5027018;28;20428;-64
2023/07/17 03:28:37;;;;;;;740.88;432.05;;;;;;;;;;5025652;28;20467;-63
2023/07/17 03:31:04;;;;;;;749.70;448.02;;;;;;;;;;5012745;28;20490;-63
2023/07/17 03:33:33;;;;;;;756.50;453.85;;;;;;;;;;5012092;28;21048;-63
2023/07/17 03:36:00;;;;;;;745.75;459.63;;;;;;;;;;5026965;28;20485;-63
2023/07/17 03:38:31;;;;;;;739.38;460.70;;;;;;;;;;5022152;28;20478;-63
2023/07/17 03:40:58;;;;;;;741.97;466.48;;;;;;;;;;5007920;28;20774;-63
2023/07/17 03:43:25;;;;;;;754.78;448.77;;;;;;;;;;5023524;28;20430;-63
2023/07/17 03:45:52;;;;;;;741.58;465.95;;;;;;;;;;5026549;28;20466;-63
2023/07/17 03:48:19;;;;;;;733.72;434.38;;;;;;;;;;5025271;28;20429;-63
2023/07/17 03:50:48;;;;;;;723.38;448.63;;;;;;;;;;5011243;28;20445;-63
2023/07/17 03:53:15;;;;;;;719.58;445.17;;;;;;;;;;5029288;28;20463;-63
2023/07/17 03:55:42;;;;;;;723.80;451.00;;;;;;;;;;5026498;28;21007;-63
2023/07/17 03:58:09;;;;;;;722.83;450.17;;;;;;;;;;5018996;28;20431;-63
2023/07/17 04:00:39;;;;;;;738.65;455.30;;;;;;;;;;5018856;28;20435;-63
2023/07/17 04:03:06;;;;;;;745.95;476.08;;;;;;;;;;5016802;28;20436;-64
2023/07/17 04:05:33;;;;;;;734.72;463.98;;;;;;;;;;5018904;28;20983;-64
2023/07/17 04:08:01;;;;;;;734.17;465.53;;;;;;;;;;5027038;28;20609;-64
2023/07/17 04:10:28;;;;;;;731.20;455.50;;;;;;;;;;5026178;28;20437;-64
2023/07/17 04:12:56;;;;;;;735.13;445.13;;;;;;;;;;5024082;28;20510;-63
2023/07/17 04:15:23;;;;;;;758.60;535.72;;;;;;;;;;5027706;28;20987;-63
2023/07/17 04:17:50;;;;;;;755.70;535.30;;;;;;;;;;5022686;28;20757;-63
2023/07/17 04:20:19;;;;;;;763.90;546.00;;;;;;;;;;5026368;28;20430;-63
2023/07/17 04:22:46;;;;;;;773.05;554.22;;;;;;;;;;5025500;28;20480;-63
2023/07/17 04:25:16;;;;;;;767.15;548.85;;;;;;;;;;5013507;28;20435;-63
2023/07/17 04:27:44;;;;;;;773.28;549.53;;;;;;;;;;5021739;28;20491;-63
2023/07/17 04:30:11;;;;;;;774.42;550.78;;;;;;;;;;5028675;28;20481;-63
2023/07/17 04:32:45;;;;;;;781.72;545.92;;;;;;;;;;5017256;28;20452;-64
2023/07/17 04:35:12;;;;;;;782.63;534.40;;;;;;;;;;5018308;28;20415;-64
2023/07/17 04:37:41;;;;;;;704.88;565.03;;;;;;;;;;5019972;28;20995;-64
2023/07/17 04:40:09;;;;;;;815.17;589.47;;;;;;;;;;5026824;28;20507;-63
2023/07/17 04:42:37;;;;;;;25.85;14.35;;;;;;;;;;5024795;28;20465;-63
2023/07/17 04:45:05;;;;;;;779.58;616.08;;;;;;;;;;5012089;28;20841;-63
2023/07/17 04:47:32;;;;;;;873.20;621.78;;;;;;;;;;5023263;28;20909;-63
2023/07/17 04:50:00;;;;;;;875.63;614.20;;;;;;;;;;5024630;28;20435;-63
2023/07/17 04:52:27;;;;;;;875.92;633.22;;;;;;;;;;5011400;28;20591;-64
2023/07/17 04:54:54;;;;;;;913.65;658.63;;;;;;;;;;5022651;28;20446;-63
2023/07/17 04:57:21;;;;;;;912.10;663.85;;;;;;;;;;5028109;28;20511;-63
2023/07/17 04:59:48;;;;;;;929.93;683.70;;;;;;;;;;5029120;28;20566;-63
2023/07/17 05:02:16;;;;;;;958.53;720.78;;;;;;;;;;5024931;28;20489;-63
2023/07/17 05:04:43;;;;;;;924.03;695.67;;;;;;;;;;5019670;28;20427;-63
2023/07/17 05:07:10;;;;;;;929.63;703.63;;;;;;;;;;5026399;28;20624;-63
2023/07/17 05:09:37;;;;;;;925.38;704.92;;;;;;;;;;5017715;28;20453;-63
2023/07/17 05:12:05;;;;;;;968.77;747.30;;;;;;;;;;5012281;28;20442;-63
2023/07/17 05:14:32;;;;;;;958.83;743.42;;;;;;;;;;5032990;28;20529;-63
2023/07/17 05:16:59;;;;;;;945.80;737.40;;;;;;;;;;5033142;28;20946;-63
2023/07/17 05:19:26;;;;;;;968.42;763.60;;;;;;;;;;5027812;28;20424;-63
2023/07/17 05:21:53;;;;;;;952.35;749.92;;;;;;;;;;5027228;28;20965;-63
2023/07/17 05:24:22;;;;;;;958.40;753.72;;;;;;;;;;5027941;28;20434;-63
2023/07/17 05:26:49;;;;;;;969.42;767.13;;;;;;;;;;5026814;28;21160;-63
2023/07/17 05:29:16;;;;;;;988.15;788.33;;;;;;;;;;5028686;28;20442;-63
2023/07/17 05:31:43;;;;;;;972.97;785.47;;;;;;;;;;5010936;28;20492;-63
2023/07/17 05:34:13;;;;;;;978.22;788.92;;;;;;;;;;5032164;28;20433;-63
2023/07/17 05:36:40;;;;;;;996.55;824.63;;;;;;;;;;5027043;28;20442;-63
2023/07/17 05:39:07;;;;;;;989.63;806.72;;;;;;;;;;5032922;28;20481;-63
2023/07/17 05:41:34;;;;;;;991.90;810.22;;;;;;;;;;5025781;28;20437;-64
2023/07/17 05:44:02;;;;;;;993.70;813.45;;;;;;;;;;5012491;28;20455;-63
2023/07/17 05:46:29;;;;;;;986.28;830.92;;;;;;;;;;5025026;28;20465;-63
2023/07/17 05:48:56;;;;;;;975.25;877.88;;;;;;;;;;5030997;28;20455;-63
2023/07/17 05:51:23;;;;;;;1001.23;837.77;;;;;;;;;;5028825;28;20931;-63
2023/07/17 05:53:51;;;;;;;1005.95;836.78;;;;;;;;;;5025590;28;20441;-63
2023/07/17 05:56:18;;;;;;;989.77;858.00;;;;;;;;;;5017308;28;20444;-63
2023/07/17 05:58:45;;;;;;;1008.03;832.85;;;;;;;;;;5027222;28;20471;-64
2023/07/17 06:01:12;;;;;;;997.33;817.72;;;;;;;;;;5023412;28;20909;-64
2023/07/17 06:03:42;;;;;;;987.15;802.55;;;;;;;;;;5025725;28;21017;-63
2023/07/17 06:06:10;;;;;;;971.17;776.53;;;;;;;;;;5004944;28;20447;-63
2023/07/17 06:08:37;;;;;;;958.55;747.78;;;;;;;;;;5001878;28;20438;-63
2023/07/17 06:11:04;;;;;;;961.35;755.80;;;;;;;;;;5019838;28;20528;-62
2023/07/17 06:13:31;;;;;;;970.83;763.80;;;;;;;;;;5027091;28;20922;-62
2023/07/17 06:15:58;;;;;;;972.00;761.42;;;;;;;;;;5020648;28;20470;-62
2023/07/17 06:18:26;;;;;;;992.65;790.95;;;;;;;;;;5017043;28;20500;-63
2023/07/17 06:20:53;;;;;;;924.55;792.38;;;;;;;;;;5026990;28;20981;-63
2023/07/17 06:23:20;;;;;;;998.67;817.95;;;;;;;;;;5024154;28;20493;-63
2023/07/17 06:25:47;;;;;;;936.60;840.70;;;;;;;;;;5027504;28;20442;-64
2023/07/17 06:28:14;;;;;;;951.50;859.83;;;;;;;;;;5013419;28;20439;-64
2023/07/17 06:30:45;;;;;;;982.60;884.17;;;;;;;;;;5024569;28;20430;-63
2023/07/17 06:33:15;;;;;;;973.35;869.00;;;;;;;;;;5028263;28;20441;-64
2023/07/17 06:35:44;;;;;;;1042.47;903.78;;;;;;;;;;5020972;28;20442;-64
2023/07/17 06:38:11;;;;;;;1044.60;912.78;;;;;;;;;;5022987;28;21384;-63
2023/07/17 06:40:39;;;;;;;1047.93;917.40;;;;;;;;;;5027156;28;20423;-63
2023/07/17 06:43:13;;;;;;;1053.18;929.83;;;;;;;;;;5028938;28;20443;-64
2023/07/17 06:45:40;;;;;;;1036.75;912.05;;;;;;;;;;5030949;28;20520;-64
2023/07/17 06:48:08;;;;;;;1028.53;896.08;;;;;;;;;;5011937;28;20462;-64
2023/07/17 06:50:38;;;;;;;1057.20;936.05;;;;;;;;;;5022192;28;20430;-63
2023/07/17 06:53:06;;;;;;;1085.78;966.60;;;;;;;;;;5029825;28;20439;-64
2023/07/17 06:55:33;;;;;;;1037.07;917.13;;;;;;;;;;5027611;28;20851;-63
2023/07/17 06:58:04;;;;;;;1020.33;908.58;;;;;;;;;;5026494;28;20428;-63
2023/07/17 07:00:31;;;;;;;881.58;784.08;;;;;;;;;;5019450;28;20510;-64
2023/07/17 07:02:58;;;;;;;1094.75;977.47;;;;;;;;;;5026939;28;20426;-63
2023/07/17 07:05:25;;;;;;;1134.05;999.90;;;;;;;;;;5024903;28;20452;-65
2023/07/17 07:07:53;;;;;;;1078.03;960.97;;;;;;;;;;5025402;28;20485;-63
2023/07/17 07:10:20;;;;;;;1014.70;902.47;;;;;;;;;;5026262;28;20435;-64
2023/07/17 07:12:47;;;;;;;1113.32;994.15;;;;;;;;;;5006392;28;20443;-64
2023/07/17 07:15:14;;;;;;;1117.40;998.13;;;;;;;;;;5023929;28;20532;-64
2023/07/17 07:17:42;;;;;;;1035.28;920.17;;;;;;;;;;5032909;28;20449;-63
2023/07/17 07:20:10;;;;;;;1047.57;932.22;;;;;;;;;;5015843;28;20436;-64
2023/07/17 07:22:39;;;;;;;1052.65;936.13;;;;;;;;;;5019477;28;20442;-64
2023/07/17 07:25:07;;;;;;;1019.28;900.33;;;;;;;;;;5023659;28;20430;-64
2023/07/17 07:27:34;;;;;;;1032.95;905.35;;;;;;;;;;5031036;28;20515;-64
2023/07/17 07:30:05;;;;;;;1048.70;923.08;;;;;;;;;;5028164;28;20484;-64
2023/07/17 07:32:32;;;;;;;1050.90;918.43;;;;;;;;;;5023501;28;20897;-65
2023/07/17 07:34:59;;;;;;;1015.05;877.60;;;;;;;;;;5023631;28;20442;-64
2023/07/17 07:37:26;;;;;;;1055.20;926.97;;;;;;;;;;5017521;28;20444;-63
2023/07/17 07:39:57;;;;;;;1034.43;901.42;;;;;;;;;;5023603;28;20444;-65
2023/07/17 07:42:24;;;;;;;1040.00;900.05;;;;;;;;;;5026724;28;20470;-64
2023/07/17 07:44:51;;;;;;;1029.20;883.90;;;;;;;;;;5023106;28;20997;-64
2023/07/17 07:47:22;;;;;;;1066.40;959.90;;;;;;;;;;5023593;28;20463;-64
2023/07/17 07:49:51;;;;;;;1019.65;877.40;;;;;;;;;;5029321;28;20538;-64
2023/07/17 07:52:19;;;;;;;1024.63;872.80;;;;;;;;;;5029226;28;21063;-65
2023/07/17 07:54:48;;;;;;;1007.65;859.72;;;;;;;;;;5025955;28;20435;-65
2023/07/17 07:57:15;;;;;;;1042.55;925.55;;;;;;;;;;5028478;28;20445;-64
2023/07/17 07:59:43;;;;;;;1061.72;945.17;;;;;;;;;;5032882;28;20430;-63
2023/07/17 08:02:10;;;;;;;1042.15;912.72;;;;;;;;;;5026705;28;20954;-63
2023/07/17 08:04:38;;;;;;;1012.42;863.28;;;;;;;;;;5020822;28;20442;-64
2023/07/17 08:07:05;;;;;;;991.07;841.63;;;;;;;;;;5028809;28;20437;-63
2023/07/17 08:09:35;;;;;;;1014.03;865.97;;;;;;;;;;5020285;28;20458;-64
2023/07/17 08:12:04;;;;;;;960.60;797.70;;;;;;;;;;5023931;28;20518;-64
2023/07/17 08:14:31;;;;;;;1004.03;855.13;;;;;;;;;;5026338;28;20435;-64
2023/07/17 08:16:58;;;;;;;1010.88;860.25;;;;;;;;;;5020806;28;20466;-63
2023/07/17 08:19:25;;;;;;;1028.17;928.70;;;;;;;;;;5013310;28;20441;-64
2023/07/17 08:21:52;;;;;;;1071.47;954.15;;;;;;;;;;5020971;28;20458;-65
2023/07/17 08:24:19;;;;;;;1044.65;918.63;;;;;;;;;;5029281;28;20443;-64
2023/07/17 08:26:47;;;;;;;1018.25;881.50;;;;;;;;;;5027458;28;20439;-64
2023/07/17 08:29:14;;;;;;;1052.63;939.03;;;;;;;;;;5018134;28;20485;-64
2023/07/17 08:31:41;;;;;;;995.17;858.20;;;;;;;;;;5027872;28;20462;-65
2023/07/17 08:34:09;;;;;;;1116.00;999.90;;;;;;;;;;5029253;28;20435;-65
2023/07/17 08:36:36;;;;;;;1030.20;905.20;;;;;;;;;;5030423;28;20466;-64
2023/07/17 08:39:05;;;;;;;1004.27;873.93;;;;;;;;;;5019151;28;20440;-64
2023/07/17 08:41:32;;;;;;;1014.28;890.00;;;;;;;;;;5021131;28;20842;-62
2023/07/17 08:44:02;;;;;;;1025.97;909.22;;;;;;;;;;5024435;28;20455;-62
2023/07/17 08:46:30;;;;;;;1004.15;876.85;;;;;;;;;;5007666;28;20439;-63
2023/07/17 08:48:57;;;;;;;991.30;862.53;;;;;;;;;;5020062;28;20431;-63
2023/07/17 08:51:27;;;;;;;1002.13;882.58;;;;;;;;;;5018262;28;20449;-63
2023/07/17 08:53:58;;;;;;;997.90;881.28;;;;;;;;;;5018401;28;20496;-64
2023/07/17 08:56:49;;;;;;;995.58;877.67;;;;;;;;;;5016781;28;20438;-64
2023/07/17 08:59:19;;;;;;;1072.10;966.40;;;;;;;;;;5016111;28;20434;-64
2023/07/17 09:01:49;;;;;;;1082.43;974.47;;;;;;;;;;5023376;28;20437;-63
2023/07/17 09:04:17;;;;;;;1085.43;967.63;;;;;;;;;;4991133;28;20440;-63
2023/07/17 09:06:44;;;;;;;1082.57;964.80;;;;;;;;;;5022421;28;20536;-64
2023/07/17 09:09:11;;;;;;;945.65;851.65;;;;;;;;;;5017613;28;20471;-64
2023/07/17 09:11:41;;;;;;;1163.05;999.90;;;;;;;;;;5021395;28;20439;-63
2023/07/17 09:14:08;;;;;;;1145.15;999.90;;;;;;;;;;5024052;28;20443;-64
2023/07/17 09:16:35;;;;;;;1108.85;989.67;;;;;;;;;;5022914;28;20524;-66
2023/07/17 09:19:05;;;;;;;1087.30;970.55;;;;;;;;;;5022928;28;20435;-65
2023/07/17 09:21:36;;;;;;;1087.22;970.47;;;;;;;;;;5025370;28;20431;-64
2023/07/17 09:24:03;;;;;;;1145.68;999.90;;;;;;;;;;5024568;28;20472;-65
2023/07/17 09:26:33;;;;;;;1133.63;999.90;;;;;;;;;;5005263;28;20434;-64
2023/07/17 09:29:03;;;;;;;1108.57;989.97;;;;;;;;;;5016295;28;20461;-64
2023/07/17 09:31:31;;;;;;;1089.93;972.60;;;;;;;;;;5019436;28;20803;-64
2023/07/17 09:33:59;;;;;;;1086.57;968.90;;;;;;;;;;5019180;28;20532;-64
2023/07/17 09:36:27;;;;;;;1083.22;965.80;;;;;;;;;;5021653;28;20427;-64
2023/07/17 09:38:54;;;;;;;1101.70;983.03;;;;;;;;;;5020508;28;20472;-65
2023/07/17 09:41:24;;;;;;;1131.40;999.90;;;;;;;;;;5019474;28;20422;-64
2023/07/17 09:43:58;;;;;;;1151.72;999.90;;;;;;;;;;5021966;28;20492;-64
2023/07/17 09:46:28;;;;;;;1154.93;999.90;;;;;;;;;;5019857;28;21200;-64
2023/07/17 09:48:56;;;;;;;1134.97;999.90;;;;;;;;;;5016645;28;20434;-63
2023/07/17 09:51:24;;;;;;;1138.10;999.90;;;;;;;;;;5024386;28;20536;-63
2023/07/17 09:53:51;;;;;;;1136.57;999.90;;;;;;;;;;5020589;28;20494;-63
2023/07/17 09:56:19;;;;;;;1078.53;961.50;;;;;;;;;;5016873;28;20921;-63
2023/07/17 09:58:48;;;;;;;1095.75;977.47;;;;;;;;;;5022814;28;20881;-63
2023/07/17 10:01:19;;;;;;;1099.85;981.28;;;;;;;;;;5022290;28;20478;-64
2023/07/17 10:03:47;;;;;;;1060.87;944.87;;;;;;;;;;5025080;28;20431;-64
2023/07/17 10:06:15;;;;;;;1135.85;999.90;;;;;;;;;;5010588;28;20462;-64
2023/07/17 10:08:46;;;;;;;1085.82;968.60;;;;;;;;;;5027330;28;20462;-64
2023/07/17 10:11:15;;;;;;;1073.80;957.63;;;;;;;;;;5013824;28;20439;-64
2023/07/17 10:13:47;;;;;;;1092.22;976.85;;;;;;;;;;5021297;28;20914;-63
2023/07/17 10:16:19;;;;;;;1083.10;968.10;;;;;;;;;;5026355;28;20473;-63
2023/07/17 10:18:50;;;;;;;1132.65;999.90;;;;;;;;;;5024476;28;20493;-64
2023/07/17 10:21:18;;;;;;;1117.60;999.10;;;;;;;;;;5029595;28;20510;-64
2023/07/17 10:23:47;;;;;;;1115.80;998.15;;;;;;;;;;5025439;28;20513;-64
2023/07/17 10:26:17;;;;;;;1098.82;982.00;;;;;;;;;;5029346;28;20485;-63
2023/07/17 10:28:48;;;;;;;1108.15;990.47;;;;;;;;;;5023968;28;20435;-65
2023/07/17 10:31:15;;;;;;;1143.05;999.90;;;;;;;;;;5030215;28;21002;-64
2023/07/17 10:33:46;;;;;;;1133.32;999.90;;;;;;;;;;5025797;28;20824;-63
2023/07/17 10:36:16;;;;;;;1093.30;977.67;;;;;;;;;;5027740;28;20436;-64
2023/07/17 10:38:49;;;;;;;1106.03;989.78;;;;;;;;;;5023706;28;20433;-65
2023/07/17 10:41:16;;;;;;;1138.80;999.90;;;;;;;;;;5004023;28;20534;-64
2023/07/17 10:43:52;;;;;;;1115.80;999.63;;;;;;;;;;5024658;28;20868;-64
2023/07/17 10:46:37;;;;;;;1107.93;992.42;;;;;;;;;;5026931;28;20438;-65
2023/07/17 10:49:06;;;;;;;1094.55;979.67;;;;;;;;;;5006745;28;20435;-65
2023/07/17 10:51:36;;;;;;;1108.57;993.08;;;;;;;;;;5026872;28;20435;-64
2023/07/17 10:54:04;;;;;;;1058.68;946.55;;;;;;;;;;5022379;28;20470;-63
2023/07/17 10:56:31;;;;;;;1078.45;965.50;;;;;;;;;;5022746;28;20510;-65
2023/07/17 10:58:59;;;;;;;1023.22;913.28;;;;;;;;;;5022070;28;20495;-64
2023/07/17 11:01:26;;;;;;;1057.47;945.50;;;;;;;;;;5028310;28;20439;-65
2023/07/17 11:03:56;;;;;;;974.08;866.75;;;;;;;;;;5028245;28;20439;-65
2023/07/17 11:06:27;;;;;;;1003.67;894.42;;;;;;;;;;5018657;28;20969;-64
2023/07/17 11:08:55;;;;;;;1010.13;900.38;;;;;;;;;;5027358;28;20502;-64
2023/07/17 11:11:23;;;;;;;1005.47;896.25;;;;;;;;;;5024752;28;20434;-64
2023/07/17 11:13:52;;;;;;;1025.85;915.72;;;;;;;;;;5029782;28;20440;-64
2023/07/17 11:16:21;;;;;;;1031.55;921.13;;;;;;;;;;5026822;28;20522;-64
2023/07/17 11:18:49;;;;;;;1002.60;893.85;;;;;;;;;;5030883;28;20525;-64
2023/07/17 11:21:17;;;;;;;1009.13;899.75;;;;;;;;;;5028714;28;20496;-65
2023/07/17 11:23:48;;;;;;;970.63;863.45;;;;;;;;;;5027546;28;20892;-64
2023/07/17 11:26:21;;;;;;;979.33;871.30;;;;;;;;;;5027882;28;20457;-64
2023/07/17 11:28:49;;;;;;;961.75;851.28;;;;;;;;;;5008493;28;20437;-65
2023/07/17 11:31:39;;;;;;;963.85;854.53;;;;;;;;;;5028267;28;20526;-66
2023/07/17 11:34:10;;;;;;;977.28;869.35;;;;;;;;;;5004038;28;20432;-65
2023/07/17 11:36:47;;;;;;;975.90;868.03;;;;;;;;;;4997904;28;20436;-66
2023/07/17 11:39:16;;;;;;;966.08;858.35;;;;;;;;;;5003835;28;21275;-65
2023/07/17 11:41:56;;;;;;;965.47;854.00;;;;;;;;;;5003946;28;20448;-65
2023/07/17 11:44:30;;;;;;;965.40;852.38;;;;;;;;;;5007492;28;20433;-65
2023/07/17 11:46:59;;;;;;;960.25;849.97;;;;;;;;;;5003555;28;20539;-64
2023/07/17 11:49:27;;;;;;;960.33;852.17;;;;;;;;;;5005474;28;20625;-64
2023/07/17 11:51:54;;;;;;;969.10;861.70;;;;;;;;;;5007982;28;20439;-65
2023/07/17 11:54:21;;;;;;;971.87;864.13;;;;;;;;;;5000297;28;21017;-65
2023/07/17 11:56:50;;;;;;;1002.70;893.37;;;;;;;;;;5001685;28;20520;-64
2023/07/17 11:59:21;;;;;;;999.80;891.03;;;;;;;;;;5002887;28;20433;-65
2023/07/17 12:01:49;;;;;;;1005.97;896.60;;;;;;;;;;5010258;28;20516;-65
2023/07/17 12:04:22;;;;;;;1007.05;897.67;;;;;;;;;;4997553;28;20740;-65
2023/07/17 12:06:49;;;;;;;998.15;889.22;;;;;;;;;;5002107;28;20435;-64
2023/07/17 12:09:17;;;;;;;987.03;878.20;;;;;;;;;;4996225;28;20577;-64
2023/07/17 12:11:45;;;;;;;959.65;847.38;;;;;;;;;;5005364;28;20612;-64
2023/07/17 12:14:16;;;;;;;1020.10;909.03;;;;;;;;;;5016569;28;20616;-65
2023/07/17 12:16:44;;;;;;;1024.32;912.88;;;;;;;;;;5016277;28;20427;-65
2023/07/17 12:19:12;;;;;;;1031.53;919.43;;;;;;;;;;5026016;28;20438;-65
2023/07/17 12:21:42;;;;;;;1040.00;927.07;;;;;;;;;;5025960;28;20465;-66
2023/07/17 12:24:11;;;;;;;1015.85;904.08;;;;;;;;;;5027588;28;20517;-65
2023/07/17 12:26:41;;;;;;;1010.03;898.78;;;;;;;;;;5025676;28;20454;-65
2023/07/17 12:29:09;;;;;;;1030.22;917.80;;;;;;;;;;5026900;28;20517;-65
2023/07/17 12:31:37;;;;;;;1021.53;909.72;;;;;;;;;;5019864;28;20461;-65
2023/07/17 12:34:04;;;;;;;1021.00;909.22;;;;;;;;;;5026563;28;20426;-66
2023/07/17 12:36:32;;;;;;;1011.88;900.65;;;;;;;;;;5003411;28;20525;-65
2023/07/17 12:39:11;;;;;;;971.45;863.88;;;;;;;;;;5025537;28;20433;-66
2023/07/17 12:41:38;;;;;;;988.40;880.07;;;;;;;;;;5006712;28;20427;-65
2023/07/17 12:44:06;;;;;;;973.23;865.63;;;;;;;;;;5026166;28;20434;-65
2023/07/17 12:46:33;;;;;;;983.33;875.28;;;;;;;;;;5026418;28;20956;-65
2023/07/17 12:49:00;;;;;;;997.35;888.55;;;;;;;;;;5020022;28;20431;-66
2023/07/17 12:51:29;;;;;;;997.95;889.13;;;;;;;;;;5027513;28;20545;-66
2023/07/17 12:54:07;;;;;;;996.88;887.90;;;;;;;;;;5026640;28;20778;-66
2023/07/17 12:56:34;;;;;;;980.93;872.53;;;;;;;;;;5023256;28;20469;-65
2023/07/17 12:59:02;;;;;;;993.53;884.60;;;;;;;;;;5019011;28;20494;-66
2023/07/17 13:01:29;;;;;;;985.83;877.10;;;;;;;;;;5017948;28;20431;-64
2023/07/17 13:04:05;;;;;;;972.87;864.50;;;;;;;;;;5019673;28;20451;-66
2023/07/17 13:06:32;;;;;;;959.27;846.80;;;;;;;;;;5023702;28;20513;-65
2023/07/17 13:09:00;;;;;;;957.72;850.28;;;;;;;;;;5019505;28;20522;-66
2023/07/17 13:11:28;;;;;;;952.90;835.45;;;;;;;;;;5022981;28;20517;-65
2023/07/17 13:13:57;;;;;;;953.40;839.13;;;;;;;;;;5002443;28;20898;-65
2023/07/17 13:16:24;;;;;;;988.28;879.75;;;;;;;;;;5022661;28;20495;-64
2023/07/17 13:18:52;;;;;;;953.67;840.90;;;;;;;;;;5009104;28;20449;-63
2023/07/17 13:21:22;;;;;;;977.43;869.40;;;;;;;;;;5021463;28;20458;-64
2023/07/17 13:23:50;;;;;;;952.38;841.33;;;;;;;;;;5023280;28;20431;-66
2023/07/17 13:26:19;;;;;;;959.20;847.70;;;;;;;;;;5017840;28;20436;-65
2023/07/17 13:28:46;;;;;;;951.33;830.83;;;;;;;;;;5025295;28;20431;-63
2023/07/17 13:31:13;;;;;;;954.97;839.83;;;;;;;;;;5002288;28;20432;-64
2023/07/17 13:33:40;;;;;;;953.58;832.63;;;;;;;;;;5021821;28;20516;-66
2023/07/17 13:36:10;;;;;;;945.65;814.28;;;;;;;;;;5018974;28;20504;-66
2023/07/17 13:38:37;;;;;;;953.00;829.38;;;;;;;;;;5000402;28;20437;-65
2023/07/17 13:41:11;;;;;;;953.80;832.00;;;;;;;;;;5011309;28;20438;-65
2023/07/17 13:43:38;;;;;;;955.30;835.08;;;;;;;;;;5016445;28;20442;-65
2023/07/17 13:46:07;;;;;;;956.42;834.53;;;;;;;;;;5020741;28;20435;-65
2023/07/17 13:48:34;;;;;;;963.10;849.35;;;;;;;;;;5019119;28;20431;-65
2023/07/17 13:51:02;;;;;;;965.87;854.93;;;;;;;;;;5013584;28;20431;-64
2023/07/17 13:53:29;;;;;;;955.38;836.72;;;;;;;;;;5025007;28;20442;-66
2023/07/17 13:55:56;;;;;;;962.17;846.70;;;;;;;;;;5009287;28;20435;-66